KSJC/SJC METAR and TAF weather

Enter ICAO airport designator
Station Type Date Time Source
KSJC METAR 2019/06/20 07:24 UTC NOAA

KSJC 200724Z AUTO 15007KT 10SM SCT016 17/15 A2991 RMK AO2 T01670150


Station Type Date Time Source
KSJC Decoded METAR 2019/06/20 07:24 UTC NOAA

SAN JOSE INTERNATIONAL AIRPORT, CA, United States (KSJC) 37-22N 121-55W 25M
Jun 20, 2019 - 03:24 AM EDT / 2019.06.20 0724 UTC
Wind: from the SSE (150 degrees) at 8 MPH (7 KT):0
Visibility: 10 mile(s):0
Sky conditions: partly cloudy
Temperature: 62.1 F (16.7 C)
Dew Point: 59.0 F (15.0 C)
Relative Humidity: 89%
Pressure (altimeter): 29.91 in. Hg (1012 hPa)
ob: KSJC 200724Z AUTO 15007KT 10SM SCT016 17/15 A2991 RMK AO2 T01670150
cycle: 7

Station Type Date Time Source
KSJC TAF 2019/06/20 06:24 UTC NOAA

TAF KSJC 200521Z 2006/2106 32007KT P6SM FEW010
FM200800 15010KT P6SM SCT012
TEMPO 2008/2012 BKN012
FM201200 15010KT P6SM BKN010
FM201600 14008KT P6SM FEW010
FM202000 31012KT P6SM FEW015

Example: see airport list